sensor_id;sensor_type;location;lat;lon;timestamp;P1;durP1;ratioP1;P2;durP2;ratioP2
20154;SDS011;10238;49.556;10.956;2023-09-08T00:02:09;7.95;;;6.20;;
20154;SDS011;10238;49.556;10.956;2023-09-08T00:04:57;7.13;;;6.53;;
20154;SDS011;10238;49.556;10.956;2023-09-08T00:07:46;8.75;;;6.22;;
20154;SDS011;10238;49.556;10.956;2023-09-08T00:10:34;6.95;;;6.25;;
20154;SDS011;10238;49.556;10.956;2023-09-08T00:13:22;7.97;;;5.65;;
20154;SDS011;10238;49.556;10.956;2023-09-08T00:16:09;6.07;;;5.53;;
20154;SDS011;10238;49.556;10.956;2023-09-08T00:18:57;6.78;;;5.88;;
20154;SDS011;10238;49.556;10.956;2023-09-08T00:21:45;6.97;;;5.97;;
20154;SDS011;10238;49.556;10.956;2023-09-08T00:24:34;7.28;;;6.00;;
20154;SDS011;10238;49.556;10.956;2023-09-08T00:27:22;6.47;;;5.43;;
20154;SDS011;10238;49.556;10.956;2023-09-08T00:30:11;6.55;;;5.20;;
20154;SDS011;10238;49.556;10.956;2023-09-08T00:33:00;7.10;;;5.88;;
20154;SDS011;10238;49.556;10.956;2023-09-08T00:35:54;6.00;;;5.43;;
20154;SDS011;10238;49.556;10.956;2023-09-08T00:38:43;8.05;;;6.00;;
20154;SDS011;10238;49.556;10.956;2023-09-08T00:41:32;7.25;;;5.22;;
20154;SDS011;10238;49.556;10.956;2023-09-08T00:44:20;7.35;;;5.28;;
20154;SDS011;10238;49.556;10.956;2023-09-08T00:47:07;6.40;;;5.75;;
20154;SDS011;10238;49.556;10.956;2023-09-08T00:49:55;7.03;;;5.03;;
20154;SDS011;10238;49.556;10.956;2023-09-08T00:52:43;7.18;;;5.13;;
20154;SDS011;10238;49.556;10.956;2023-09-08T00:55:31;6.38;;;5.78;;
20154;SDS011;10238;49.556;10.956;2023-09-08T00:58:21;8.73;;;5.60;;
20154;SDS011;10238;49.556;10.956;2023-09-08T01:01:09;9.52;;;5.50;;
20154;SDS011;10238;49.556;10.956;2023-09-08T01:03:57;5.65;;;4.97;;
20154;SDS011;10238;49.556;10.956;2023-09-08T01:06:45;5.65;;;4.88;;
20154;SDS011;10238;49.556;10.956;2023-09-08T01:09:34;5.95;;;5.22;;
20154;SDS011;10238;49.556;10.956;2023-09-08T01:12:24;5.35;;;4.85;;
20154;SDS011;10238;49.556;10.956;2023-09-08T01:15:13;6.13;;;5.32;;
20154;SDS011;10238;49.556;10.956;2023-09-08T01:18:02;5.78;;;5.28;;
20154;SDS011;10238;49.556;10.956;2023-09-08T01:21:03;5.78;;;5.15;;
20154;SDS011;10238;49.556;10.956;2023-09-08T01:24:17;5.40;;;4.90;;
20154;SDS011;10238;49.556;10.956;2023-09-08T01:27:25;6.03;;;5.15;;
20154;SDS011;10238;49.556;10.956;2023-09-08T01:30:16;7.95;;;5.15;;
20154;SDS011;10238;49.556;10.956;2023-09-08T01:33:07;10.98;;;5.80;;
20154;SDS011;10238;49.556;10.956;2023-09-08T01:35:55;7.05;;;5.70;;
20154;SDS011;10238;49.556;10.956;2023-09-08T01:38:43;7.68;;;6.45;;
20154;SDS011;10238;49.556;10.956;2023-09-08T01:41:30;9.30;;;6.55;;
20154;SDS011;10238;49.556;10.956;2023-09-08T01:44:19;10.70;;;7.00;;
20154;SDS011;10238;49.556;10.956;2023-09-08T01:47:07;11.20;;;7.32;;
20154;SDS011;10238;49.556;10.956;2023-09-08T01:49:54;10.70;;;7.43;;
20154;SDS011;10238;49.556;10.956;2023-09-08T01:52:42;9.00;;;7.30;;
20154;SDS011;10238;49.556;10.956;2023-09-08T01:55:29;10.80;;;7.43;;
20154;SDS011;10238;49.556;10.956;2023-09-08T01:58:17;8.65;;;6.70;;
20154;SDS011;10238;49.556;10.956;2023-09-08T02:01:06;8.07;;;6.78;;
20154;SDS011;10238;49.556;10.956;2023-09-08T02:03:54;8.13;;;7.13;;
20154;SDS011;10238;49.556;10.956;2023-09-08T02:06:41;9.32;;;7.07;;
20154;SDS011;10238;49.556;10.956;2023-09-08T02:09:32;7.85;;;6.57;;
20154;SDS011;10238;49.556;10.956;2023-09-08T02:12:21;9.45;;;6.95;;
20154;SDS011;10238;49.556;10.956;2023-09-08T02:15:09;8.07;;;6.22;;
20154;SDS011;10238;49.556;10.956;2023-09-08T02:17:59;7.75;;;6.45;;
20154;SDS011;10238;49.556;10.956;2023-09-08T02:20:46;9.95;;;7.35;;
20154;SDS011;10238;49.556;10.956;2023-09-08T02:23:37;10.93;;;6.75;;
20154;SDS011;10238;49.556;10.956;2023-09-08T02:26:25;9.38;;;7.35;;
20154;SDS011;10238;49.556;10.956;2023-09-08T02:29:13;9.00;;;6.78;;
20154;SDS011;10238;49.556;10.956;2023-09-08T02:32:01;8.55;;;6.95;;
20154;SDS011;10238;49.556;10.956;2023-09-08T02:34:50;8.98;;;6.40;;
20154;SDS011;10238;49.556;10.956;2023-09-08T02:37:38;8.18;;;6.25;;
20154;SDS011;10238;49.556;10.956;2023-09-08T02:40:26;12.20;;;6.60;;
20154;SDS011;10238;49.556;10.956;2023-09-08T02:43:13;8.68;;;6.72;;
20154;SDS011;10238;49.556;10.956;2023-09-08T02:46:01;8.10;;;6.40;;
20154;SDS011;10238;49.556;10.956;2023-09-08T02:48:49;9.75;;;6.30;;
20154;SDS011;10238;49.556;10.956;2023-09-08T02:51:39;8.65;;;6.38;;
20154;SDS011;10238;49.556;10.956;2023-09-08T02:54:27;8.52;;;6.47;;
20154;SDS011;10238;49.556;10.956;2023-09-08T02:57:15;6.90;;;6.20;;
20154;SDS011;10238;49.556;10.956;2023-09-08T03:00:03;7.00;;;6.22;;
20154;SDS011;10238;49.556;10.956;2023-09-08T03:03:00;7.18;;;6.18;;
20154;SDS011;10238;49.556;10.956;2023-09-08T03:05:48;8.98;;;6.60;;
20154;SDS011;10238;49.556;10.956;2023-09-08T03:08:42;9.18;;;6.32;;
20154;SDS011;10238;49.556;10.956;2023-09-08T03:11:31;6.55;;;5.80;;
20154;SDS011;10238;49.556;10.956;2023-09-08T03:14:19;7.72;;;5.95;;
20154;SDS011;10238;49.556;10.956;2023-09-08T03:17:06;6.78;;;6.07;;
20154;SDS011;10238;49.556;10.956;2023-09-08T03:19:54;6.75;;;5.80;;
20154;SDS011;10238;49.556;10.956;2023-09-08T03:22:41;7.78;;;6.18;;
20154;SDS011;10238;49.556;10.956;2023-09-08T03:25:30;8.75;;;6.45;;
20154;SDS011;10238;49.556;10.956;2023-09-08T03:28:18;7.32;;;6.13;;
20154;SDS011;10238;49.556;10.956;2023-09-08T03:31:06;7.22;;;5.47;;
20154;SDS011;10238;49.556;10.956;2023-09-08T03:33:53;7.05;;;5.40;;
20154;SDS011;10238;49.556;10.956;2023-09-08T03:36:41;6.15;;;5.55;;
20154;SDS011;10238;49.556;10.956;2023-09-08T03:39:29;6.43;;;5.47;;
20154;SDS011;10238;49.556;10.956;2023-09-08T03:42:18;8.85;;;5.78;;
20154;SDS011;10238;49.556;10.956;2023-09-08T03:45:06;5.50;;;5.00;;
20154;SDS011;10238;49.556;10.956;2023-09-08T03:47:54;8.68;;;6.00;;
20154;SDS011;10238;49.556;10.956;2023-09-08T03:50:42;6.60;;;5.40;;
20154;SDS011;10238;49.556;10.956;2023-09-08T03:53:31;7.50;;;5.80;;
20154;SDS011;10238;49.556;10.956;2023-09-08T03:56:20;5.97;;;5.30;;
20154;SDS011;10238;49.556;10.956;2023-09-08T03:59:09;7.15;;;5.55;;
20154;SDS011;10238;49.556;10.956;2023-09-08T04:01:57;7.38;;;5.80;;
20154;SDS011;10238;49.556;10.956;2023-09-08T04:04:44;7.95;;;5.93;;
20154;SDS011;10238;49.556;10.956;2023-09-08T04:07:32;7.30;;;5.72;;
20154;SDS011;10238;49.556;10.956;2023-09-08T04:10:20;7.35;;;5.97;;
20154;SDS011;10238;49.556;10.956;2023-09-08T04:13:07;6.20;;;5.60;;
20154;SDS011;10238;49.556;10.956;2023-09-08T04:15:56;8.38;;;6.05;;
20154;SDS011;10238;49.556;10.956;2023-09-08T04:18:44;9.60;;;5.97;;
20154;SDS011;10238;49.556;10.956;2023-09-08T04:21:32;7.47;;;6.22;;
20154;SDS011;10238;49.556;10.956;2023-09-08T04:24:19;9.57;;;6.00;;
20154;SDS011;10238;49.556;10.956;2023-09-08T04:27:07;7.15;;;5.38;;
20154;SDS011;10238;49.556;10.956;2023-09-08T04:29:59;6.50;;;5.72;;
20154;SDS011;10238;49.556;10.956;2023-09-08T04:32:48;9.07;;;5.90;;
20154;SDS011;10238;49.556;10.956;2023-09-08T04:35:36;7.38;;;6.10;;
20154;SDS011;10238;49.556;10.956;2023-09-08T04:38:23;8.23;;;5.80;;
20154;SDS011;10238;49.556;10.956;2023-09-08T04:41:11;5.82;;;5.22;;
20154;SDS011;10238;49.556;10.956;2023-09-08T04:43:59;7.88;;;6.20;;
20154;SDS011;10238;49.556;10.956;2023-09-08T04:46:47;6.20;;;5.35;;
20154;SDS011;10238;49.556;10.956;2023-09-08T04:49:36;7.22;;;5.72;;
20154;SDS011;10238;49.556;10.956;2023-09-08T04:52:24;9.48;;;5.90;;
20154;SDS011;10238;49.556;10.956;2023-09-08T04:55:12;8.77;;;5.78;;
20154;SDS011;10238;49.556;10.956;2023-09-08T04:58:00;6.20;;;5.47;;
20154;SDS011;10238;49.556;10.956;2023-09-08T05:00:47;7.78;;;5.20;;
20154;SDS011;10238;49.556;10.956;2023-09-08T05:03:37;6.50;;;5.30;;
20154;SDS011;10238;49.556;10.956;2023-09-08T05:06:26;5.88;;;4.80;;
20154;SDS011;10238;49.556;10.956;2023-09-08T05:09:14;8.15;;;6.00;;
20154;SDS011;10238;49.556;10.956;2023-09-08T05:12:01;10.45;;;6.20;;
20154;SDS011;10238;49.556;10.956;2023-09-08T05:14:49;7.95;;;5.97;;
20154;SDS011;10238;49.556;10.956;2023-09-08T05:17:45;7.80;;;6.70;;
20154;SDS011;10238;49.556;10.956;2023-09-08T05:20:36;7.35;;;6.35;;
20154;SDS011;10238;49.556;10.956;2023-09-08T05:23:25;7.03;;;6.32;;
20154;SDS011;10238;49.556;10.956;2023-09-08T05:26:13;7.10;;;6.40;;
20154;SDS011;10238;49.556;10.956;2023-09-08T05:29:01;7.32;;;6.63;;
20154;SDS011;10238;49.556;10.956;2023-09-08T05:31:49;8.68;;;6.35;;
20154;SDS011;10238;49.556;10.956;2023-09-08T05:34:37;8.35;;;6.32;;
20154;SDS011;10238;49.556;10.956;2023-09-08T05:37:26;7.05;;;6.35;;
20154;SDS011;10238;49.556;10.956;2023-09-08T05:40:15;7.15;;;6.40;;
20154;SDS011;10238;49.556;10.956;2023-09-08T05:43:04;8.35;;;6.72;;
20154;SDS011;10238;49.556;10.956;2023-09-08T05:45:52;7.47;;;6.78;;
20154;SDS011;10238;49.556;10.956;2023-09-08T05:48:39;9.00;;;7.43;;
20154;SDS011;10238;49.556;10.956;2023-09-08T05:51:27;9.48;;;7.85;;
20154;SDS011;10238;49.556;10.956;2023-09-08T05:54:16;7.68;;;6.80;;
20154;SDS011;10238;49.556;10.956;2023-09-08T05:57:05;11.23;;;8.05;;
20154;SDS011;10238;49.556;10.956;2023-09-08T05:59:53;9.98;;;7.30;;
20154;SDS011;10238;49.556;10.956;2023-09-08T06:02:40;11.73;;;8.50;;
20154;SDS011;10238;49.556;10.956;2023-09-08T06:05:28;9.13;;;8.20;;
20154;SDS011;10238;49.556;10.956;2023-09-08T06:08:16;11.55;;;8.88;;
20154;SDS011;10238;49.556;10.956;2023-09-08T06:11:03;8.65;;;7.68;;
20154;SDS011;10238;49.556;10.956;2023-09-08T06:13:52;10.32;;;9.07;;
20154;SDS011;10238;49.556;10.956;2023-09-08T06:16:45;9.68;;;8.68;;
20154;SDS011;10238;49.556;10.956;2023-09-08T06:19:32;9.32;;;8.43;;
20154;SDS011;10238;49.556;10.956;2023-09-08T06:22:20;12.05;;;9.05;;
20154;SDS011;10238;49.556;10.956;2023-09-08T06:25:08;12.70;;;8.77;;
20154;SDS011;10238;49.556;10.956;2023-09-08T06:27:56;9.65;;;8.43;;
20154;SDS011;10238;49.556;10.956;2023-09-08T06:30:44;13.18;;;8.93;;
20154;SDS011;10238;49.556;10.956;2023-09-08T06:33:32;9.55;;;7.82;;
20154;SDS011;10238;49.556;10.956;2023-09-08T06:36:20;11.70;;;8.35;;
20154;SDS011;10238;49.556;10.956;2023-09-08T06:39:08;10.90;;;7.72;;
20154;SDS011;10238;49.556;10.956;2023-09-08T06:41:56;10.05;;;7.70;;
20154;SDS011;10238;49.556;10.956;2023-09-08T06:44:51;13.57;;;8.77;;
20154;SDS011;10238;49.556;10.956;2023-09-08T06:47:39;10.15;;;7.47;;
20154;SDS011;10238;49.556;10.956;2023-09-08T06:50:27;8.70;;;7.40;;
20154;SDS011;10238;49.556;10.956;2023-09-08T06:53:15;8.68;;;6.70;;
20154;SDS011;10238;49.556;10.956;2023-09-08T06:56:03;8.52;;;6.63;;
20154;SDS011;10238;49.556;10.956;2023-09-08T06:58:51;7.28;;;6.20;;
20154;SDS011;10238;49.556;10.956;2023-09-08T07:01:40;9.02;;;6.32;;
20154;SDS011;10238;49.556;10.956;2023-09-08T07:04:28;8.35;;;6.60;;
20154;SDS011;10238;49.556;10.956;2023-09-08T07:07:16;10.52;;;6.82;;
20154;SDS011;10238;49.556;10.956;2023-09-08T07:10:06;8.02;;;5.82;;
20154;SDS011;10238;49.556;10.956;2023-09-08T07:12:55;9.52;;;6.82;;
20154;SDS011;10238;49.556;10.956;2023-09-08T07:15:43;9.02;;;6.78;;
20154;SDS011;10238;49.556;10.956;2023-09-08T07:18:32;10.65;;;7.30;;
20154;SDS011;10238;49.556;10.956;2023-09-08T07:21:22;8.70;;;7.15;;
20154;SDS011;10238;49.556;10.956;2023-09-08T07:24:10;9.63;;;6.65;;
20154;SDS011;10238;49.556;10.956;2023-09-08T07:26:57;9.23;;;6.72;;
20154;SDS011;10238;49.556;10.956;2023-09-08T07:29:46;8.48;;;6.53;;
20154;SDS011;10238;49.556;10.956;2023-09-08T07:32:35;10.88;;;6.35;;
20154;SDS011;10238;49.556;10.956;2023-09-08T07:35:24;9.88;;;7.25;;
20154;SDS011;10238;49.556;10.956;2023-09-08T07:38:12;9.93;;;6.28;;
20154;SDS011;10238;49.556;10.956;2023-09-08T07:41:00;9.50;;;7.00;;
20154;SDS011;10238;49.556;10.956;2023-09-08T07:43:49;7.13;;;6.43;;
20154;SDS011;10238;49.556;10.956;2023-09-08T07:46:37;10.95;;;6.50;;
20154;SDS011;10238;49.556;10.956;2023-09-08T07:49:24;7.82;;;6.93;;
20154;SDS011;10238;49.556;10.956;2023-09-08T07:52:13;9.57;;;6.85;;
20154;SDS011;10238;49.556;10.956;2023-09-08T07:55:01;8.07;;;6.80;;
20154;SDS011;10238;49.556;10.956;2023-09-08T07:57:50;12.10;;;7.32;;
20154;SDS011;10238;49.556;10.956;2023-09-08T08:00:38;8.57;;;6.85;;
20154;SDS011;10238;49.556;10.956;2023-09-08T08:03:26;7.13;;;6.43;;
20154;SDS011;10238;49.556;10.956;2023-09-08T08:06:14;6.78;;;6.10;;
20154;SDS011;10238;49.556;10.956;2023-09-08T08:09:03;8.00;;;6.72;;
20154;SDS011;10238;49.556;10.956;2023-09-08T08:11:51;8.57;;;6.00;;
20154;SDS011;10238;49.556;10.956;2023-09-08T08:14:39;8.38;;;5.78;;
20154;SDS011;10238;49.556;10.956;2023-09-08T08:17:27;7.93;;;5.93;;
20154;SDS011;10238;49.556;10.956;2023-09-08T08:20:15;7.78;;;5.10;;
20154;SDS011;10238;49.556;10.956;2023-09-08T08:23:04;11.52;;;5.90;;
20154;SDS011;10238;49.556;10.956;2023-09-08T08:25:54;8.13;;;6.10;;
20154;SDS011;10238;49.556;10.956;2023-09-08T08:28:42;8.55;;;6.05;;
20154;SDS011;10238;49.556;10.956;2023-09-08T08:31:30;8.50;;;5.68;;
20154;SDS011;10238;49.556;10.956;2023-09-08T08:34:19;6.80;;;5.50;;
20154;SDS011;10238;49.556;10.956;2023-09-08T08:37:06;7.30;;;6.13;;
20154;SDS011;10238;49.556;10.956;2023-09-08T08:39:54;6.32;;;5.00;;
20154;SDS011;10238;49.556;10.956;2023-09-08T08:42:43;7.70;;;5.60;;
20154;SDS011;10238;49.556;10.956;2023-09-08T08:45:31;8.05;;;5.88;;
20154;SDS011;10238;49.556;10.956;2023-09-08T08:48:22;7.00;;;5.15;;
20154;SDS011;10238;49.556;10.956;2023-09-08T08:51:11;8.98;;;6.03;;
20154;SDS011;10238;49.556;10.956;2023-09-08T08:54:02;8.05;;;5.57;;
20154;SDS011;10238;49.556;10.956;2023-09-08T08:56:50;8.68;;;5.93;;
20154;SDS011;10238;49.556;10.956;2023-09-08T08:59:40;8.20;;;5.53;;
20154;SDS011;10238;49.556;10.956;2023-09-08T09:02:28;7.50;;;5.45;;
20154;SDS011;10238;49.556;10.956;2023-09-08T09:05:17;8.40;;;5.65;;
20154;SDS011;10238;49.556;10.956;2023-09-08T09:08:06;8.55;;;6.05;;
20154;SDS011;10238;49.556;10.956;2023-09-08T09:10:54;7.25;;;5.35;;
20154;SDS011;10238;49.556;10.956;2023-09-08T09:13:43;7.20;;;5.25;;
20154;SDS011;10238;49.556;10.956;2023-09-08T09:16:32;6.45;;;5.20;;
20154;SDS011;10238;49.556;10.956;2023-09-08T09:19:26;7.47;;;5.22;;
20154;SDS011;10238;49.556;10.956;2023-09-08T09:22:19;7.72;;;4.97;;
20154;SDS011;10238;49.556;10.956;2023-09-08T09:25:08;9.82;;;5.45;;
20154;SDS011;10238;49.556;10.956;2023-09-08T09:27:57;7.88;;;5.03;;
20154;SDS011;10238;49.556;10.956;2023-09-08T09:30:48;7.43;;;4.80;;
20154;SDS011;10238;49.556;10.956;2023-09-08T09:33:39;5.85;;;4.82;;
20154;SDS011;10238;49.556;10.956;2023-09-08T09:36:26;7.60;;;4.95;;
20154;SDS011;10238;49.556;10.956;2023-09-08T09:39:16;5.88;;;5.15;;
20154;SDS011;10238;49.556;10.956;2023-09-08T09:42:05;6.05;;;5.15;;
20154;SDS011;10238;49.556;10.956;2023-09-08T09:44:53;5.63;;;4.65;;
20154;SDS011;10238;49.556;10.956;2023-09-08T09:47:41;7.13;;;4.53;;
20154;SDS011;10238;49.556;10.956;2023-09-08T09:50:33;5.82;;;4.65;;
20154;SDS011;10238;49.556;10.956;2023-09-08T09:53:22;7.40;;;5.27;;
20154;SDS011;10238;49.556;10.956;2023-09-08T09:56:10;5.53;;;4.57;;
20154;SDS011;10238;49.556;10.956;2023-09-08T09:58:59;6.45;;;4.85;;
20154;SDS011;10238;49.556;10.956;2023-09-08T10:01:51;5.07;;;4.57;;
20154;SDS011;10238;49.556;10.956;2023-09-08T10:04:41;6.05;;;5.05;;
20154;SDS011;10238;49.556;10.956;2023-09-08T10:07:31;7.30;;;4.90;;
20154;SDS011;10238;49.556;10.956;2023-09-08T10:10:19;8.45;;;5.32;;
20154;SDS011;10238;49.556;10.956;2023-09-08T10:13:09;5.00;;;4.50;;
20154;SDS011;10238;49.556;10.956;2023-09-08T10:16:00;4.60;;;4.20;;
20154;SDS011;10238;49.556;10.956;2023-09-08T10:18:49;5.35;;;4.55;;
20154;SDS011;10238;49.556;10.956;2023-09-08T10:21:41;5.03;;;4.37;;
20154;SDS011;10238;49.556;10.956;2023-09-08T10:24:34;6.43;;;4.55;;
20154;SDS011;10238;49.556;10.956;2023-09-08T10:27:23;8.25;;;5.07;;
20154;SDS011;10238;49.556;10.956;2023-09-08T10:30:13;4.82;;;4.32;;
20154;SDS011;10238;49.556;10.956;2023-09-08T10:33:02;4.85;;;4.35;;
20154;SDS011;10238;49.556;10.956;2023-09-08T10:35:52;6.50;;;4.45;;
20154;SDS011;10238;49.556;10.956;2023-09-08T10:38:41;8.68;;;4.57;;
20154;SDS011;10238;49.556;10.956;2023-09-08T10:41:34;5.50;;;4.32;;
20154;SDS011;10238;49.556;10.956;2023-09-08T10:44:22;4.57;;;4.18;;
20154;SDS011;10238;49.556;10.956;2023-09-08T10:47:10;6.95;;;4.50;;
20154;SDS011;10238;49.556;10.956;2023-09-08T10:49:57;5.60;;;4.18;;
20154;SDS011;10238;49.556;10.956;2023-09-08T10:52:46;6.63;;;4.60;;
20154;SDS011;10238;49.556;10.956;2023-09-08T10:55:52;5.53;;;4.40;;
20154;SDS011;10238;49.556;10.956;2023-09-08T10:58:48;5.20;;;4.38;;
20154;SDS011;10238;49.556;10.956;2023-09-08T11:01:38;6.22;;;4.20;;
20154;SDS011;10238;49.556;10.956;2023-09-08T11:04:27;5.22;;;4.65;;
20154;SDS011;10238;49.556;10.956;2023-09-08T11:07:18;5.22;;;4.45;;
20154;SDS011;10238;49.556;10.956;2023-09-08T11:10:05;6.75;;;4.15;;
20154;SDS011;10238;49.556;10.956;2023-09-08T11:12:57;5.07;;;4.00;;
20154;SDS011;10238;49.556;10.956;2023-09-08T11:15:46;4.70;;;4.07;;
20154;SDS011;10238;49.556;10.956;2023-09-08T11:18:34;7.57;;;4.40;;
20154;SDS011;10238;49.556;10.956;2023-09-08T11:21:22;5.35;;;4.22;;
20154;SDS011;10238;49.556;10.956;2023-09-08T11:24:11;5.50;;;4.07;;
20154;SDS011;10238;49.556;10.956;2023-09-08T11:27:01;4.20;;;3.70;;
20154;SDS011;10238;49.556;10.956;2023-09-08T11:29:49;6.28;;;4.15;;
20154;SDS011;10238;49.556;10.956;2023-09-08T11:32:38;6.35;;;4.03;;
20154;SDS011;10238;49.556;10.956;2023-09-08T11:35:27;4.35;;;3.95;;
20154;SDS011;10238;49.556;10.956;2023-09-08T11:38:15;4.18;;;3.75;;
20154;SDS011;10238;49.556;10.956;2023-09-08T11:41:02;4.68;;;3.95;;
20154;SDS011;10238;49.556;10.956;2023-09-08T11:43:50;4.78;;;3.97;;
20154;SDS011;10238;49.556;10.956;2023-09-08T11:46:39;4.20;;;3.80;;
20154;SDS011;10238;49.556;10.956;2023-09-08T11:49:33;4.30;;;3.88;;
20154;SDS011;10238;49.556;10.956;2023-09-08T11:52:22;4.47;;;3.97;;
20154;SDS011;10238;49.556;10.956;2023-09-08T11:55:11;5.13;;;3.97;;
20154;SDS011;10238;49.556;10.956;2023-09-08T11:57:59;5.82;;;4.00;;
20154;SDS011;10238;49.556;10.956;2023-09-08T12:00:47;4.70;;;4.20;;
20154;SDS011;10238;49.556;10.956;2023-09-08T12:03:50;4.57;;;4.15;;
20154;SDS011;10238;49.556;10.956;2023-09-08T12:06:40;4.70;;;3.95;;
20154;SDS011;10238;49.556;10.956;2023-09-08T12:09:29;5.03;;;3.92;;
20154;SDS011;10238;49.556;10.956;2023-09-08T12:12:17;4.70;;;4.28;;
20154;SDS011;10238;49.556;10.956;2023-09-08T12:15:04;5.40;;;4.00;;
20154;SDS011;10238;49.556;10.956;2023-09-08T12:17:53;4.93;;;3.65;;
20154;SDS011;10238;49.556;10.956;2023-09-08T12:20:41;7.75;;;3.55;;
20154;SDS011;10238;49.556;10.956;2023-09-08T12:23:32;6.35;;;4.20;;
20154;SDS011;10238;49.556;10.956;2023-09-08T12:26:19;4.55;;;4.13;;
20154;SDS011;10238;49.556;10.956;2023-09-08T12:29:12;4.05;;;3.65;;
20154;SDS011;10238;49.556;10.956;2023-09-08T12:32:01;4.45;;;3.97;;
20154;SDS011;10238;49.556;10.956;2023-09-08T12:34:49;4.30;;;3.90;;
20154;SDS011;10238;49.556;10.956;2023-09-08T12:37:38;4.47;;;3.35;;
20154;SDS011;10238;49.556;10.956;2023-09-08T12:40:27;4.38;;;3.88;;
20154;SDS011;10238;49.556;10.956;2023-09-08T12:43:16;4.03;;;3.70;;
20154;SDS011;10238;49.556;10.956;2023-09-08T12:46:12;4.53;;;3.70;;
20154;SDS011;10238;49.556;10.956;2023-09-08T12:49:04;6.28;;;4.00;;
20154;SDS011;10238;49.556;10.956;2023-09-08T12:51:54;3.77;;;3.43;;
20154;SDS011;10238;49.556;10.956;2023-09-08T12:54:42;4.07;;;3.67;;
20154;SDS011;10238;49.556;10.956;2023-09-08T12:57:31;5.45;;;3.85;;
20154;SDS011;10238;49.556;10.956;2023-09-08T13:00:18;6.20;;;3.90;;
20154;SDS011;10238;49.556;10.956;2023-09-08T13:03:08;4.68;;;3.65;;
20154;SDS011;10238;49.556;10.956;2023-09-08T13:05:56;6.85;;;4.35;;
20154;SDS011;10238;49.556;10.956;2023-09-08T13:08:43;6.03;;;3.78;;
20154;SDS011;10238;49.556;10.956;2023-09-08T13:11:31;7.68;;;3.53;;
20154;SDS011;10238;49.556;10.956;2023-09-08T13:14:20;6.90;;;3.63;;
20154;SDS011;10238;49.556;10.956;2023-09-08T13:17:08;6.13;;;3.78;;
20154;SDS011;10238;49.556;10.956;2023-09-08T13:20:01;6.13;;;4.10;;
20154;SDS011;10238;49.556;10.956;2023-09-08T13:22:49;4.43;;;3.53;;
20154;SDS011;10238;49.556;10.956;2023-09-08T13:25:37;4.18;;;3.70;;
20154;SDS011;10238;49.556;10.956;2023-09-08T13:28:25;4.07;;;3.72;;
20154;SDS011;10238;49.556;10.956;2023-09-08T13:31:14;4.40;;;4.00;;
20154;SDS011;10238;49.556;10.956;2023-09-08T13:34:02;4.18;;;3.78;;
20154;SDS011;10238;49.556;10.956;2023-09-08T13:36:50;4.25;;;3.70;;
20154;SDS011;10238;49.556;10.956;2023-09-08T13:39:38;5.80;;;3.72;;
20154;SDS011;10238;49.556;10.956;2023-09-08T13:42:26;5.13;;;3.53;;
20154;SDS011;10238;49.556;10.956;2023-09-08T13:45:13;4.32;;;3.92;;
20154;SDS011;10238;49.556;10.956;2023-09-08T13:48:02;4.82;;;3.88;;
20154;SDS011;10238;49.556;10.956;2023-09-08T13:50:52;4.45;;;4.05;;
20154;SDS011;10238;49.556;10.956;2023-09-08T13:53:43;6.57;;;4.15;;
20154;SDS011;10238;49.556;10.956;2023-09-08T13:56:32;4.82;;;4.15;;
20154;SDS011;10238;49.556;10.956;2023-09-08T13:59:21;4.47;;;3.63;;
20154;SDS011;10238;49.556;10.956;2023-09-08T14:02:12;5.75;;;3.70;;
20154;SDS011;10238;49.556;10.956;2023-09-08T14:05:05;5.88;;;3.63;;
20154;SDS011;10238;49.556;10.956;2023-09-08T14:07:54;4.60;;;4.05;;
20154;SDS011;10238;49.556;10.956;2023-09-08T14:10:52;4.78;;;4.07;;
20154;SDS011;10238;49.556;10.956;2023-09-08T14:13:54;4.43;;;3.70;;
20154;SDS011;10238;49.556;10.956;2023-09-08T14:16:42;7.22;;;3.80;;
20154;SDS011;10238;49.556;10.956;2023-09-08T14:19:30;4.80;;;3.95;;
20154;SDS011;10238;49.556;10.956;2023-09-08T14:22:19;4.90;;;3.33;;
20154;SDS011;10238;49.556;10.956;2023-09-08T14:25:07;4.30;;;3.90;;
20154;SDS011;10238;49.556;10.956;2023-09-08T14:27:55;5.22;;;4.05;;
20154;SDS011;10238;49.556;10.956;2023-09-08T14:30:46;4.90;;;4.03;;
20154;SDS011;10238;49.556;10.956;2023-09-08T14:33:36;6.03;;;3.95;;
20154;SDS011;10238;49.556;10.956;2023-09-08T14:36:24;4.32;;;3.92;;
20154;SDS011;10238;49.556;10.956;2023-09-08T14:39:13;5.50;;;4.35;;
20154;SDS011;10238;49.556;10.956;2023-09-08T14:42:03;8.18;;;3.63;;
20154;SDS011;10238;49.556;10.956;2023-09-08T14:44:54;4.65;;;4.25;;
20154;SDS011;10238;49.556;10.956;2023-09-08T14:47:42;6.18;;;3.80;;
20154;SDS011;10238;49.556;10.956;2023-09-08T14:50:30;3.88;;;3.53;;
20154;SDS011;10238;49.556;10.956;2023-09-08T14:53:18;4.70;;;3.75;;
20154;SDS011;10238;49.556;10.956;2023-09-08T14:56:07;4.20;;;3.80;;
20154;SDS011;10238;49.556;10.956;2023-09-08T14:58:55;6.53;;;3.70;;
20154;SDS011;10238;49.556;10.956;2023-09-08T15:01:42;5.72;;;4.05;;
20154;SDS011;10238;49.556;10.956;2023-09-08T15:04:31;5.32;;;3.97;;
20154;SDS011;10238;49.556;10.956;2023-09-08T15:07:19;4.60;;;4.07;;
20154;SDS011;10238;49.556;10.956;2023-09-08T15:10:07;5.20;;;4.05;;
20154;SDS011;10238;49.556;10.956;2023-09-08T15:12:56;4.30;;;3.90;;
20154;SDS011;10238;49.556;10.956;2023-09-08T15:15:44;4.90;;;4.22;;
20154;SDS011;10238;49.556;10.956;2023-09-08T15:18:33;5.25;;;4.20;;
20154;SDS011;10238;49.556;10.956;2023-09-08T15:21:20;4.30;;;3.53;;
20154;SDS011;10238;49.556;10.956;2023-09-08T15:24:11;4.80;;;3.70;;
20154;SDS011;10238;49.556;10.956;2023-09-08T15:26:59;4.70;;;3.88;;
20154;SDS011;10238;49.556;10.956;2023-09-08T15:29:49;5.65;;;4.20;;
20154;SDS011;10238;49.556;10.956;2023-09-08T15:32:38;4.65;;;4.13;;
20154;SDS011;10238;49.556;10.956;2023-09-08T15:35:26;4.35;;;3.70;;
20154;SDS011;10238;49.556;10.956;2023-09-08T15:38:14;5.00;;;3.70;;
20154;SDS011;10238;49.556;10.956;2023-09-08T15:41:13;5.68;;;3.97;;
20154;SDS011;10238;49.556;10.956;2023-09-08T15:44:04;7.57;;;3.88;;
20154;SDS011;10238;49.556;10.956;2023-09-08T15:46:52;7.18;;;3.70;;
20154;SDS011;10238;49.556;10.956;2023-09-08T15:49:40;4.32;;;3.72;;
20154;SDS011;10238;49.556;10.956;2023-09-08T15:52:28;4.03;;;3.72;;
20154;SDS011;10238;49.556;10.956;2023-09-08T15:55:15;7.03;;;3.70;;
20154;SDS011;10238;49.556;10.956;2023-09-08T15:58:03;5.57;;;3.63;;
20154;SDS011;10238;49.556;10.956;2023-09-08T16:00:51;4.65;;;3.65;;
20154;SDS011;10238;49.556;10.956;2023-09-08T16:03:40;4.22;;;3.78;;
20154;SDS011;10238;49.556;10.956;2023-09-08T16:06:28;7.68;;;4.22;;
20154;SDS011;10238;49.556;10.956;2023-09-08T16:09:16;4.03;;;3.63;;
20154;SDS011;10238;49.556;10.956;2023-09-08T16:12:04;5.60;;;4.10;;
20154;SDS011;10238;49.556;10.956;2023-09-08T16:14:52;7.10;;;3.85;;
20154;SDS011;10238;49.556;10.956;2023-09-08T16:17:40;4.85;;;3.72;;
20154;SDS011;10238;49.556;10.956;2023-09-08T16:20:29;4.75;;;4.22;;
20154;SDS011;10238;49.556;10.956;2023-09-08T16:23:17;4.22;;;3.83;;
20154;SDS011;10238;49.556;10.956;2023-09-08T16:26:05;3.90;;;3.60;;
20154;SDS011;10238;49.556;10.956;2023-09-08T16:28:53;4.70;;;3.80;;
20154;SDS011;10238;49.556;10.956;2023-09-08T16:31:41;4.40;;;4.00;;
20154;SDS011;10238;49.556;10.956;2023-09-08T16:34:29;4.57;;;3.80;;
20154;SDS011;10238;49.556;10.956;2023-09-08T16:37:18;5.35;;;3.90;;
20154;SDS011;10238;49.556;10.956;2023-09-08T16:40:06;4.85;;;4.32;;
20154;SDS011;10238;49.556;10.956;2023-09-08T16:42:55;4.25;;;3.75;;